Time;durP1;ratioP1;P1;durP2;ratioP2;P2;SDS_P1;SDS_P2;PMS_P1;PMS_P2;Temp;Humidity;BMP_temperature;BMP_pressure;BME280_temperature;BME280_humidity;BME280_pressure;Samples;Min_cycle;Max_cycle;Signal;HPM_P1;HPM_P2
2023/08/30 00:00:18;;;;;;;2.40;2.30;;;;;;;10.08;100.00;95966.47;5099558;28;20410;-70
2023/08/30 00:02:44;;;;;;;2.20;2.10;;;;;;;10.08;100.00;95968.28;5100770;28;20032;-70
2023/08/30 00:05:09;;;;;;;2.50;2.30;;;;;;;10.09;100.00;95970.75;5095664;28;20020;-70
2023/08/30 00:07:35;;;;;;;3.45;2.17;;;;;;;10.08;100.00;95966.47;5098955;28;20072;-70
2023/08/30 00:10:01;;;;;;;2.70;2.20;;;;;;;10.08;100.00;95960.38;5095697;28;20028;-70
2023/08/30 00:12:27;;;;;;;2.22;2.10;;;;;;;10.08;100.00;95963.00;5104965;28;20024;-70
2023/08/30 00:14:52;;;;;;;3.53;2.55;;;;;;;10.04;100.00;95960.63;5097536;28;20026;-70
2023/08/30 00:17:19;;;;;;;2.33;2.22;;;;;;;10.04;100.00;95962.44;5102220;28;20049;-70
2023/08/30 00:19:45;;;;;;;4.07;1.95;;;;;;;10.01;100.00;95966.16;5094540;28;20453;-70
2023/08/30 00:22:11;;;;;;;2.47;2.28;;;;;;;10.00;100.00;95972.38;5097752;28;20073;-70
2023/08/30 00:24:37;;;;;;;2.38;2.20;;;;;;;10.01;100.00;95962.69;5094162;28;20016;-70
2023/08/30 00:27:02;;;;;;;2.42;2.22;;;;;;;10.01;100.00;95963.50;5105135;28;20602;-70
2023/08/30 00:29:28;;;;;;;2.20;2.10;;;;;;;9.97;100.00;95958.66;5104080;28;20057;-70
2023/08/30 00:31:54;;;;;;;2.30;2.20;;;;;;;9.95;100.00;95958.78;5094761;28;20026;-70
2023/08/30 00:34:20;;;;;;;2.08;2.08;;;;;;;9.95;100.00;95960.59;5097464;28;20512;-70
2023/08/30 00:36:45;;;;;;;2.40;2.30;;;;;;;9.92;100.00;95948.53;5103943;28;20023;-70
2023/08/30 00:39:11;;;;;;;2.67;2.50;;;;;;;9.91;100.00;95954.75;5100467;28;20020;-71
2023/08/30 00:41:36;;;;;;;2.70;2.50;;;;;;;9.88;100.00;95945.31;5097923;28;20537;-70
2023/08/30 00:44:02;;;;;;;2.47;2.38;;;;;;;9.84;100.00;95951.00;5101964;28;20023;-70
2023/08/30 00:46:28;;;;;;;2.97;2.20;;;;;;;9.81;100.00;95956.50;5101295;28;20496;-70
2023/08/30 00:48:53;;;;;;;2.20;2.10;;;;;;;9.79;100.00;95945.28;5095761;28;20019;-70
2023/08/30 00:51:19;;;;;;;2.63;2.47;;;;;;;9.83;100.00;95951.94;5100315;28;20717;-70
2023/08/30 00:53:45;;;;;;;4.50;2.63;;;;;;;9.83;100.00;95950.16;5099173;28;20020;-70
2023/08/30 00:56:11;;;;;;;3.25;2.60;;;;;;;9.87;100.00;95940.22;5101676;28;20480;-70
2023/08/30 00:58:37;;;;;;;2.47;2.38;;;;;;;9.88;100.00;95945.31;5098800;28;20016;-70
2023/08/30 01:01:07;;;;;;;2.55;2.45;;;;;;;9.88;100.00;95942.69;5103701;28;20012;-70
2023/08/30 01:03:32;;;;;;;2.60;2.40;;;;;;;9.84;100.00;95938.66;5108173;28;20030;-70
2023/08/30 01:05:57;;;;;;;3.85;2.30;;;;;;;9.80;100.00;95939.06;5108883;28;20032;-70
2023/08/30 01:08:23;;;;;;;2.38;2.17;;;;;;;9.77;100.00;95937.53;5106799;28;20024;-70
2023/08/30 01:11:07;;;;;;;2.30;2.20;;;;;;;9.73;100.00;95931.69;5101383;28;20028;-70
2023/08/30 01:13:42;;;;;;;2.58;2.25;;;;;;;9.73;100.00;95925.63;5109951;28;20613;-70
2023/08/30 01:16:08;;;;;;;2.70;2.50;;;;;;;9.70;100.00;95924.06;5097908;28;20105;-70
2023/08/30 01:18:36;;;;;;;2.40;2.30;;;;;;;9.69;100.00;95919.78;5095755;28;20254;-70
2023/08/30 01:21:04;;;;;;;2.53;2.40;;;;;;;9.67;100.00;95916.44;5099825;28;20074;-70
2023/08/30 01:23:35;;;;;;;2.60;2.50;;;;;;;9.62;100.00;95918.66;5096871;28;20056;-69
2023/08/30 01:26:09;;;;;;;2.67;2.58;;;;;;;9.58;100.00;95919.84;5108650;28;20024;-70
2023/08/30 01:28:35;;;;;;;3.25;2.38;;;;;;;9.56;100.00;95908.63;5100738;28;20020;-70
2023/08/30 01:31:03;;;;;;;2.22;2.13;;;;;;;9.54;100.00;95911.41;5099374;28;20048;-70
2023/08/30 01:33:29;;;;;;;3.03;2.40;;;;;;;9.54;100.00;95910.56;5098800;28;20040;-70
2023/08/30 01:35:58;;;;;;;2.97;2.50;;;;;;;9.52;100.00;95907.22;5100374;28;20436;-70
2023/08/30 01:38:25;;;;;;;2.10;2.00;;;;;;;9.44;100.00;95911.34;5111852;28;20377;-70
2023/08/30 01:40:51;;;;;;;2.53;2.33;;;;;;;9.40;100.00;95902.06;5102145;27;20531;-70
2023/08/30 01:43:18;;;;;;;2.47;2.38;;;;;;;9.37;100.00;95904.94;5098269;28;20023;-70
2023/08/30 01:45:44;;;;;;;2.92;2.67;;;;;;;9.35;100.00;95898.16;5108574;28;20652;-70
2023/08/30 01:48:11;;;;;;;3.17;2.97;;;;;;;9.32;100.00;95909.75;5099660;28;20833;-70
2023/08/30 01:50:39;;;;;;;4.10;3.75;;;;;;;9.39;100.00;95903.00;5097424;28;20122;-70
2023/08/30 01:53:06;;;;;;;3.20;3.00;;;;;;;9.43;100.00;95906.22;5096621;28;20020;-70
2023/08/30 01:55:32;;;;;;;3.20;3.00;;;;;;;9.41;100.00;95897.63;5097640;28;20370;-70
2023/08/30 01:57:58;;;;;;;2.25;2.15;;;;;;;9.41;100.00;95902.88;5108087;28;20570;-70
2023/08/30 02:00:23;;;;;;;2.47;2.28;;;;;;;9.38;100.00;95893.44;5096346;28;20028;-69
2023/08/30 02:02:49;;;;;;;2.60;2.40;;;;;;;9.39;100.00;95889.03;5097621;28;20065;-70
2023/08/30 02:05:14;;;;;;;3.00;2.80;;;;;;;9.37;100.00;95891.78;5104609;28;20042;-70
2023/08/30 02:07:49;;;;;;;2.95;2.70;;;;;;;9.32;100.00;95888.72;5102614;28;20016;-70
2023/08/30 02:10:21;;;;;;;2.70;2.50;;;;;;;9.26;100.00;95884.00;5095070;28;20451;-70
2023/08/30 02:12:48;;;;;;;2.90;2.70;;;;;;;9.22;100.00;95885.22;5104709;28;20550;-70
2023/08/30 02:15:16;;;;;;;2.55;2.45;;;;;;;9.23;100.00;95885.06;5110811;28;20019;-70
2023/08/30 02:17:43;;;;;;;3.83;2.55;;;;;;;9.20;100.00;95884.53;5094534;28;20024;-70
2023/08/30 02:20:09;;;;;;;2.75;2.55;;;;;;;9.22;100.00;95879.97;5095454;28;20429;-70
2023/08/30 02:22:35;;;;;;;3.10;2.83;;;;;;;9.17;100.00;95878.56;5095759;28;20043;-69
2023/08/30 02:25:04;;;;;;;3.45;3.20;;;;;;;9.14;100.00;95870.09;5094796;28;20032;-70
2023/08/30 02:27:32;;;;;;;2.95;2.75;;;;;;;9.14;100.00;95868.28;5104294;27;20024;-70
2023/08/30 02:29:58;;;;;;;2.83;2.72;;;;;;;9.12;100.00;95862.34;5115861;27;20060;-70
2023/08/30 02:32:24;;;;;;;3.20;2.92;;;;;;;9.11;100.00;95865.94;5105748;28;20074;-70
2023/08/30 02:34:52;;;;;;;2.90;2.70;;;;;;;9.14;100.00;95859.59;5095332;28;20020;-70
2023/08/30 02:37:18;;;;;;;3.25;3.00;;;;;;;9.16;100.00;95853.22;5106235;28;20044;-70
2023/08/30 02:39:43;;;;;;;3.53;2.80;;;;;;;9.15;100.00;95853.38;5097308;28;20048;-70
2023/08/30 02:42:08;;;;;;;3.00;2.80;;;;;;;9.11;100.00;95867.72;5096264;28;20082;-70
2023/08/30 02:44:34;;;;;;;3.65;3.13;;;;;;;9.11;100.00;95857.22;5101743;28;20057;-70
2023/08/30 02:46:59;;;;;;;2.80;2.60;;;;;;;9.10;100.00;95855.56;5095638;28;20031;-70
2023/08/30 02:49:25;;;;;;;2.70;2.50;;;;;;;9.11;100.00;95860.66;5105421;27;20035;-70
2023/08/30 02:51:50;;;;;;;2.67;2.47;;;;;;;9.06;100.00;95867.25;5103368;28;20042;-70
2023/08/30 02:54:15;;;;;;;3.20;3.00;;;;;;;9.01;100.00;95863.22;5100328;28;20028;-70
2023/08/30 02:56:45;;;;;;;2.95;2.72;;;;;;;9.03;100.00;95863.13;5094787;28;20091;-70
2023/08/30 02:59:11;;;;;;;2.60;2.47;;;;;;;9.08;100.00;95866.19;5108143;28;20487;-70
2023/08/30 03:01:37;;;;;;;2.50;2.30;;;;;;;9.05;100.00;95861.19;5107519;28;20057;-70
2023/08/30 03:04:05;;;;;;;2.65;2.50;;;;;;;9.02;100.00;95871.97;5102580;28;20019;-70
2023/08/30 03:06:32;;;;;;;2.67;2.50;;;;;;;9.00;100.00;95866.81;5097262;28;20432;-70
2023/08/30 03:08:57;;;;;;;3.63;2.97;;;;;;;8.99;100.00;95867.78;5101897;28;20024;-70
2023/08/30 03:11:23;;;;;;;2.47;2.38;;;;;;;8.98;100.00;95873.19;5101708;28;20043;-70
2023/08/30 03:13:48;;;;;;;2.50;2.40;;;;;;;8.91;100.00;95867.59;5099546;28;20102;-69
2023/08/30 03:16:17;;;;;;;4.00;2.75;;;;;;;8.91;100.00;95864.13;5103042;28;20452;-70
2023/08/30 03:18:43;;;;;;;2.60;2.50;;;;;;;8.89;100.00;95865.09;5097491;28;20060;-70
2023/08/30 03:21:09;;;;;;;2.50;2.40;;;;;;;8.89;100.00;95853.75;5102285;28;20036;-70
2023/08/30 03:23:35;;;;;;;2.50;2.40;;;;;;;8.87;100.00;95853.06;5093623;28;20031;-70
2023/08/30 03:26:10;;;;;;;2.55;2.35;;;;;;;8.87;100.00;95853.88;5099164;28;20031;-70
2023/08/30 03:28:36;;;;;;;2.55;2.35;;;;;;;8.86;100.00;95859.28;5098841;27;20106;-70
2023/08/30 03:31:01;;;;;;;2.55;2.42;;;;;;;8.81;100.00;95853.56;5092210;28;20067;-70
2023/08/30 03:33:27;;;;;;;2.60;2.40;;;;;;;8.80;100.00;95851.88;5093111;28;20059;-70
2023/08/30 03:35:52;;;;;;;3.88;2.67;;;;;;;8.74;100.00;95840.13;5104941;28;20035;-70
2023/08/30 03:38:17;;;;;;;2.53;2.40;;;;;;;8.74;100.00;95840.13;5095432;28;20040;-69
2023/08/30 03:40:43;;;;;;;2.65;2.45;;;;;;;8.74;100.00;95840.13;5100163;28;20034;-70
2023/08/30 03:43:08;;;;;;;2.60;2.50;;;;;;;8.74;100.00;95837.50;5102071;27;20032;-70
2023/08/30 03:45:37;;;;;;;2.83;2.50;;;;;;;8.76;100.00;95838.19;5094115;28;20046;-70
2023/08/30 03:48:04;;;;;;;2.35;2.25;;;;;;;8.73;100.00;95835.81;5107206;28;20047;-69
2023/08/30 03:50:29;;;;;;;2.60;2.50;;;;;;;8.74;100.00;95842.75;5094317;28;20035;-70
2023/08/30 03:52:54;;;;;;;2.55;2.45;;;;;;;8.79;100.00;95839.72;5108461;28;20027;-70
2023/08/30 03:55:21;;;;;;;2.60;2.40;;;;;;;8.79;100.00;95837.09;5098196;28;20043;-69
2023/08/30 03:57:46;;;;;;;2.22;2.13;;;;;;;8.72;100.00;95835.00;5093092;28;20023;-70
2023/08/30 04:00:12;;;;;;;2.65;2.47;;;;;;;8.71;100.00;95840.34;5104346;28;20023;-70
2023/08/30 04:02:37;;;;;;;2.47;2.28;;;;;;;8.72;100.00;95842.00;5094902;28;20455;-70
2023/08/30 04:05:08;;;;;;;2.55;2.35;;;;;;;8.78;100.00;95846.78;5093077;28;20535;-70
2023/08/30 04:07:33;;;;;;;2.95;2.50;;;;;;;8.77;100.00;95850.38;5109439;28;20020;-70
2023/08/30 04:09:59;;;;;;;4.28;2.53;;;;;;;8.69;100.00;95844.91;5105462;28;20016;-70
2023/08/30 04:12:24;;;;;;;2.53;2.42;;;;;;;8.69;100.00;95839.66;5100089;28;20497;-70
2023/08/30 04:14:49;;;;;;;2.20;2.10;;;;;;;8.69;100.00;95842.28;5113971;28;20035;-70
2023/08/30 04:17:15;;;;;;;2.67;2.47;;;;;;;8.65;100.00;95849.59;5094336;28;20069;-70
2023/08/30 04:19:40;;;;;;;2.30;2.20;;;;;;;8.60;100.00;95842.09;5092684;28;20501;-69
2023/08/30 04:22:06;;;;;;;2.70;2.30;;;;;;;8.63;100.00;95840.16;5092467;28;20032;-70
2023/08/30 04:24:31;;;;;;;2.38;2.20;;;;;;;8.67;100.00;95841.56;5102649;28;20012;-69
2023/08/30 04:26:56;;;;;;;2.30;2.20;;;;;;;8.57;100.00;95842.34;5106032;28;20051;-70
2023/08/30 04:29:22;;;;;;;2.78;2.58;;;;;;;8.51;100.00;95850.72;5110085;28;20025;-70
2023/08/30 04:31:47;;;;;;;2.50;2.33;;;;;;;8.49;100.00;95849.94;5096237;28;20024;-70
2023/08/30 04:34:12;;;;;;;2.80;2.60;;;;;;;8.50;100.00;95846.41;5103825;27;20748;-70
2023/08/30 04:36:38;;;;;;;2.38;2.22;;;;;;;8.52;100.00;95855.00;5087700;28;20366;-70
2023/08/30 04:39:03;;;;;;;3.40;2.30;;;;;;;8.49;100.00;95847.34;5097375;28;20468;-70
2023/08/30 04:41:29;;;;;;;2.33;2.22;;;;;;;8.48;100.00;95852.72;5100686;28;20565;-70
2023/08/30 04:43:54;;;;;;;3.00;2.72;;;;;;;8.45;100.00;95852.00;5102660;28;20054;-70
2023/08/30 04:46:19;;;;;;;2.90;2.70;;;;;;;8.39;100.00;95854.28;5102806;28;20412;-70
2023/08/30 04:48:45;;;;;;;2.70;2.50;;;;;;;8.35;100.00;95858.94;5097335;28;20027;-70
2023/08/30 04:51:11;;;;;;;2.70;2.50;;;;;;;8.35;100.00;95858.94;5110151;28;20041;-70
2023/08/30 04:53:36;;;;;;;2.58;2.40;;;;;;;8.36;100.00;95850.13;5116447;28;20020;-70
2023/08/30 04:56:13;;;;;;;2.50;2.30;;;;;;;8.38;100.00;95850.00;5109594;28;20508;-70
2023/08/30 04:58:39;;;;;;;2.65;2.42;;;;;;;8.38;100.00;95852.63;5117587;28;20023;-70
2023/08/30 05:01:04;;;;;;;2.90;2.70;;;;;;;8.35;100.00;95853.69;5110794;28;20027;-70
2023/08/30 05:03:30;;;;;;;2.85;2.60;;;;;;;8.34;100.00;95845.97;5096948;28;20085;-70
2023/08/30 05:05:55;;;;;;;2.90;2.70;;;;;;;8.34;100.00;95851.22;5115415;28;20031;-69
2023/08/30 05:08:21;;;;;;;2.53;2.35;;;;;;;8.37;100.00;95853.59;5103064;28;20024;-70
2023/08/30 05:10:46;;;;;;;2.60;2.40;;;;;;;8.39;100.00;95842.00;5100264;28;20024;-70
2023/08/30 05:13:12;;;;;;;3.08;2.78;;;;;;;8.41;100.00;95844.50;5097092;28;20055;-70
2023/08/30 05:15:37;;;;;;;3.00;2.55;;;;;;;8.41;100.00;95832.25;5101128;28;20016;-70
2023/08/30 05:18:03;;;;;;;2.78;2.42;;;;;;;8.45;100.00;95845.91;5104966;28;20026;-70
2023/08/30 05:20:29;;;;;;;2.97;2.50;;;;;;;8.51;100.00;95827.09;5110526;28;20028;-70
2023/08/30 05:22:55;;;;;;;2.42;2.33;;;;;;;8.56;100.00;95831.94;5096688;28;20036;-70
2023/08/30 05:25:20;;;;;;;4.90;2.53;;;;;;;8.58;100.00;95838.75;5095536;28;20567;-69
2023/08/30 05:27:46;;;;;;;2.83;2.67;;;;;;;8.60;100.00;95834.22;5104543;27;20035;-70
2023/08/30 05:30:12;;;;;;;2.50;2.30;;;;;;;8.64;100.00;95850.53;5113826;27;20076;-69
2023/08/30 05:32:37;;;;;;;3.00;2.80;;;;;;;8.69;100.00;95850.16;5106528;28;20026;-70
2023/08/30 05:35:03;;;;;;;2.60;2.50;;;;;;;8.76;100.00;95853.94;5111107;28;20020;-69
2023/08/30 05:37:28;;;;;;;6.30;2.70;;;;;;;8.79;100.00;95851.06;5097343;28;20047;-70
2023/08/30 05:39:54;;;;;;;3.65;2.65;;;;;;;8.82;100.00;95856.06;5101827;28;20024;-70
2023/08/30 05:42:19;;;;;;;2.65;2.55;;;;;;;8.85;100.00;95847.94;5096925;27;20454;-70
2023/08/30 05:44:44;;;;;;;2.60;2.50;;;;;;;8.90;100.00;95855.44;5108603;28;20028;-70
2023/08/30 05:47:14;;;;;;;2.92;2.72;;;;;;;8.93;100.00;95849.91;5095486;28;20032;-69
2023/08/30 05:49:40;;;;;;;2.65;2.50;;;;;;;8.97;100.00;95850.50;5098140;28;20023;-70
2023/08/30 05:52:05;;;;;;;3.08;2.88;;;;;;;9.04;100.00;95854.28;5107873;28;20023;-69
2023/08/30 05:54:31;;;;;;;2.85;2.65;;;;;;;9.13;100.00;95855.31;5097480;28;20032;-70
2023/08/30 05:56:56;;;;;;;7.45;2.97;;;;;;;9.12;100.00;95857.06;5094511;28;20016;-70
2023/08/30 05:59:22;;;;;;;3.03;2.83;;;;;;;9.17;100.00;95854.06;5095873;28;20024;-70
2023/08/30 06:01:47;;;;;;;3.78;2.97;;;;;;;9.23;100.00;95855.38;5095725;28;20024;-70
2023/08/30 06:04:13;;;;;;;4.85;2.78;;;;;;;9.27;100.00;95857.56;5108884;28;20032;-70
2023/08/30 06:06:38;;;;;;;2.95;2.60;;;;;;;9.35;100.00;95859.56;5097976;28;20028;-70
2023/08/30 06:09:04;;;;;;;3.40;3.20;;;;;;;9.40;100.00;95853.91;5094804;28;20016;-70
2023/08/30 06:11:29;;;;;;;3.28;3.08;;;;;;;9.42;100.00;95862.50;5095958;28;20036;-70
2023/08/30 06:13:55;;;;;;;3.20;2.90;;;;;;;9.49;100.00;95854.94;5094456;28;20069;-70
2023/08/30 06:16:20;;;;;;;3.17;2.97;;;;;;;9.57;100.00;95855.09;5105313;28;20020;-70
2023/08/30 06:18:46;;;;;;;5.30;3.15;;;;;;;9.65;100.00;95857.06;5110274;28;20079;-70
2023/08/30 06:21:11;;;;;;;3.00;2.80;;;;;;;9.76;100.00;95862.25;5095757;28;20028;-70
2023/08/30 06:23:38;;;;;;;6.60;2.85;;;;;;;9.81;100.00;95867.09;5103170;28;20481;-70
2023/08/30 06:26:03;;;;;;;3.20;2.90;;;;;;;9.82;100.00;95869.59;5108724;27;20029;-70
2023/08/30 06:28:29;;;;;;;3.00;2.80;;;;;;;9.89;100.00;95870.72;5104739;27;20039;-70
2023/08/30 06:30:54;;;;;;;6.53;2.90;;;;;;;10.03;100.00;95871.34;5110958;27;20052;-69
2023/08/30 06:33:19;;;;;;;4.63;2.55;;;;;;;10.13;100.00;95874.81;5107353;28;20027;-70
2023/08/30 06:35:48;;;;;;;2.08;1.98;;;;;;;10.25;100.00;95872.06;5105738;28;20034;-70
2023/08/30 06:38:13;;;;;;;3.55;2.33;;;;;;;10.33;100.00;95874.84;5102526;28;20050;-71
2023/08/30 06:40:44;;;;;;;1.90;1.80;;;;;;;10.42;100.00;95879.34;5110978;28;20028;-72
2023/08/30 06:43:09;;;;;;;3.22;2.08;;;;;;;10.51;100.00;95882.13;5100861;27;20046;-72
2023/08/30 06:45:34;;;;;;;2.40;2.30;;;;;;;10.52;100.00;95892.53;5094636;28;20107;-72
2023/08/30 06:48:00;;;;;;;3.08;2.30;;;;;;;10.57;100.00;95894.72;5099569;28;20019;-72
2023/08/30 06:50:25;;;;;;;2.25;1.90;;;;;;;10.58;100.00;95905.13;5104718;28;20016;-73
2023/08/30 06:52:51;;;;;;;3.63;2.10;;;;;;;10.64;100.00;95911.66;5107263;28;20146;-74
2023/08/30 06:55:16;;;;;;;3.85;2.67;;;;;;;10.77;100.00;95924.56;5094623;28;20020;-73
2023/08/30 06:57:48;;;;;;;2.75;1.92;;;;;;;10.92;100.00;95932.88;5112491;28;20031;-71
2023/08/30 07:00:14;;;;;;;4.15;1.98;;;;;;;11.10;100.00;95948.81;5096508;28;20119;-72
2023/08/30 07:02:40;;;;;;;2.20;1.98;;;;;;;11.34;100.00;95949.38;5093374;28;20511;-71
2023/08/30 07:05:06;;;;;;;2.10;2.00;;;;;;;11.54;100.00;95963.34;5097045;28;20362;-71
2023/08/30 07:07:32;;;;;;;3.20;1.85;;;;;;;11.71;100.00;95973.19;5095978;28;20031;-72
2023/08/30 07:09:57;;;;;;;2.25;1.70;;;;;;;11.85;100.00;95992.19;5093355;28;20020;-71
2023/08/30 07:12:23;;;;;;;2.53;1.65;;;;;;;12.00;100.00;96013.66;5092913;28;20059;-72
2023/08/30 07:14:48;;;;;;;1.90;1.80;;;;;;;12.07;100.00;96030.59;5088593;28;20020;-72
2023/08/30 07:17:14;;;;;;;2.13;1.90;;;;;;;12.29;100.00;96045.28;5095813;28;20024;-72
2023/08/30 07:19:39;;;;;;;2.60;2.00;;;;;;;12.46;100.00;96059.53;5093198;28;20024;-72
2023/08/30 07:22:05;;;;;;;3.08;1.70;;;;;;;12.59;100.00;96075.03;5094577;28;20027;-72
2023/08/30 07:24:30;;;;;;;2.00;1.90;;;;;;;12.90;100.00;96087.97;5106718;28;20024;-72
2023/08/30 07:26:55;;;;;;;3.20;1.63;;;;;;;13.22;100.00;96103.53;5105102;27;20020;-71
2023/08/30 07:29:21;;;;;;;1.58;1.50;;;;;;;13.30;100.00;96120.34;5096507;28;20044;-71
2023/08/30 07:31:47;;;;;;;2.03;1.77;;;;;;;13.48;100.00;96147.81;5096441;28;20080;-71
2023/08/30 07:34:12;;;;;;;4.45;1.80;;;;;;;13.58;100.00;96162.63;5098703;28;20036;-71
2023/08/30 07:36:38;;;;;;;2.80;1.70;;;;;;;13.78;100.00;96173.09;5093390;28;20020;-71
2023/08/30 07:39:03;;;;;;;2.03;1.90;;;;;;;13.92;100.00;96179.69;5098777;28;20024;-71
2023/08/30 07:41:29;;;;;;;1.70;1.60;;;;;;;14.01;100.00;96191.16;5098874;28;20031;-71
2023/08/30 07:43:54;;;;;;;3.17;1.48;;;;;;;14.22;100.00;96201.44;5093473;28;20059;-72
2023/08/30 07:46:20;;;;;;;1.73;1.67;;;;;;;14.40;100.00;96203.25;5096748;28;20062;-72
2023/08/30 07:48:45;;;;;;;1.70;1.60;;;;;;;14.49;100.00;96205.00;5093785;28;20114;-72
2023/08/30 07:51:10;;;;;;;2.55;2.08;;;;;;;14.60;100.00;96207.38;5099923;28;20020;-71
2023/08/30 07:53:36;;;;;;;1.27;1.27;;;;;;;14.80;100.00;96207.22;5100649;28;20469;-72
2023/08/30 07:56:01;;;;;;;5.28;1.63;;;;;;;14.87;100.00;96213.53;5100002;28;20111;-71
2023/08/30 07:58:27;;;;;;;1.70;1.60;;;;;;;14.88;100.00;96217.03;5092610;28;20781;-72
2023/08/30 08:00:53;;;;;;;5.13;1.80;;;;;;;15.03;100.00;96217.28;5096764;28;20051;-70
2023/08/30 08:03:20;;;;;;;1.77;1.50;;;;;;;15.17;100.00;96215.88;5099883;28;20024;-71
2023/08/30 08:05:46;;;;;;;1.73;1.35;;;;;;;15.28;100.00;96220.91;5109294;28;20027;-70
2023/08/30 08:08:11;;;;;;;2.75;1.73;;;;;;;15.29;100.00;96206.66;5108556;28;20088;-71
2023/08/30 08:10:36;;;;;;;1.70;1.60;;;;;;;15.36;100.00;96206.84;5116075;28;20028;-72
2023/08/30 08:13:03;;;;;;;1.85;1.42;;;;;;;15.52;100.00;96202.59;5118209;27;20024;-73
2023/08/30 08:15:30;;;;;;;1.40;1.40;;;;;;;15.59;100.00;96203.63;5102712;28;20052;-72
2023/08/30 08:17:56;;;;;;;1.65;1.58;;;;;;;15.65;100.00;96200.31;5099319;28;20035;-72
2023/08/30 08:20:22;;;;;;;1.60;1.50;;;;;;;15.68;100.00;96204.47;5099293;28;20050;-70
2023/08/30 08:22:47;;;;;;;2.60;1.52;;;;;;;15.69;100.00;96203.47;5104130;28;20657;-71
2023/08/30 08:25:13;;;;;;;2.47;1.40;;;;;;;15.84;100.00;96206.34;5111910;28;20028;-71
2023/08/30 08:27:39;;;;;;;2.90;1.52;;;;;;;15.82;100.00;96203.84;5113336;27;20487;-72
2023/08/30 08:30:05;;;;;;;1.63;1.52;;;;;;;15.93;100.00;96200.09;5115430;27;20047;-71
2023/08/30 08:32:31;;;;;;;1.70;1.60;;;;;;;15.90;100.00;96198.56;5099203;28;20079;-70
2023/08/30 08:34:57;;;;;;;1.85;1.63;;;;;;;15.93;100.00;96205.41;5112651;28;20451;-72
2023/08/30 08:37:22;;;;;;;4.82;1.80;;;;;;;15.99;100.00;96198.59;5113847;27;20019;-71
2023/08/30 08:39:50;;;;;;;1.67;1.58;;;;;;;16.13;100.00;96197.13;5099580;28;20046;-73
2023/08/30 08:42:17;;;;;;;3.63;1.40;;;;;;;16.37;100.00;96203.44;5110656;27;20028;-73
2023/08/30 08:44:45;;;;;;;1.50;1.40;;;;;;;16.52;100.00;96199.16;5104547;28;20024;-73
2023/08/30 08:47:11;;;;;;;1.60;1.50;;;;;;;16.58;100.00;96192.34;5097426;28;20039;-77
2023/08/30 08:49:37;;;;;;;1.65;1.50;;;;;;;16.74;100.00;96192.28;5092272;28;20028;-74
2023/08/30 08:52:04;;;;;;;1.50;1.40;;;;;;;16.80;100.00;96196.13;5108965;28;20544;-76
2023/08/30 08:54:29;;;;;;;3.33;1.60;;;;;;;16.81;100.00;96184.47;5112266;28;20027;-78
2023/08/30 08:56:55;;;;;;;4.55;1.73;;;;;;;16.92;100.00;96188.63;5097349;28;20028;-76
2023/08/30 08:59:21;;;;;;;1.60;1.50;;;;;;;16.91;100.00;96176.31;5095690;28;20028;-74
2023/08/30 09:01:48;;;;;;;5.63;1.50;;;;;;;16.93;100.00;96181.47;5097186;28;20401;-76
2023/08/30 09:04:13;;;;;;;2.95;2.00;;;;;;;17.08;100.00;96173.66;5100111;28;20058;-77
2023/08/30 09:06:45;;;;;;;2.55;1.63;;;;;;;17.19;100.00;96173.28;5101371;28;20119;-76
2023/08/30 09:09:11;;;;;;;2.00;1.80;;;;;;;17.30;100.00;96166.75;5096791;28;20024;-77
2023/08/30 09:11:37;;;;;;;2.40;1.80;;;;;;;17.36;100.00;96155.44;5110155;28;20600;-76
2023/08/30 09:14:02;;;;;;;2.35;1.80;;;;;;;17.46;100.00;96161.34;5117123;28;20028;-76
2023/08/30 09:16:28;;;;;;;1.65;1.60;;;;;;;17.43;100.00;96153.72;5117313;28;20080;-77
2023/08/30 09:19:01;;;;;;;2.08;1.98;;;;;;;17.50;100.00;96150.34;5100553;28;20024;-76
2023/08/30 09:21:27;;;;;;;2.08;1.67;;;;;;;17.44;100.00;96144.72;5101381;28;20056;-77
2023/08/30 09:24:19;;;;;;;3.78;1.60;;;;;;;17.39;100.00;96140.94;5102116;28;20118;-76
2023/08/30 09:26:53;;;;;;;1.65;1.63;;;;;;;17.31;100.00;96134.66;5113295;27;20054;-76
2023/08/30 09:29:21;;;;;;;1.65;1.55;;;;;;;17.40;100.00;96124.81;5110919;27;20023;-77
2023/08/30 09:31:52;;;;;;;1.83;1.73;;;;;;;17.46;100.00;96117.94;5110765;27;20473;-76
2023/08/30 09:34:17;;;;;;;2.42;1.55;;;;;;;17.55;100.00;96122.22;5109869;28;20028;-76
2023/08/30 09:36:43;;;;;;;1.70;1.60;;;;;;;17.67;100.00;96113.81;5103201;28;20084;-76
2023/08/30 09:39:13;;;;;;;2.35;1.52;;;;;;;17.76;100.00;96105.59;5103715;28;20054;-77
2023/08/30 09:41:56;;;;;;;2.60;1.77;;;;;;;17.85;100.00;96102.91;5096373;28;20062;-74
2023/08/30 09:44:22;;;;;;;1.45;1.30;;;;;;;17.83;100.00;96096.94;5109777;28;20412;-77
2023/08/30 09:46:54;;;;;;;1.40;1.30;;;;;;;17.94;100.00;96093.00;5107134;28;20032;-73
2023/08/30 09:49:25;;;;;;;2.10;1.67;;;;;;;17.94;100.00;96080.50;5110616;28;20038;-73
2023/08/30 09:51:52;;;;;;;1.33;1.33;;;;;;;17.80;100.00;96076.78;5100843;28;20040;-71
2023/08/30 09:54:19;;;;;;;1.80;1.70;;;;;;;17.80;100.00;96075.97;5095579;28;20028;-72
2023/08/30 09:56:46;;;;;;;1.55;1.45;;;;;;;17.82;100.00;96076.63;5095794;28;20028;-72
2023/08/30 09:59:14;;;;;;;2.15;1.40;;;;;;;17.87;100.00;96067.06;5098074;28;20046;-70
2023/08/30 10:01:40;;;;;;;1.77;1.50;;;;;;;18.02;100.00;96061.00;5105177;27;20220;-71
2023/08/30 10:04:08;;;;;;;1.50;1.40;;;;;;;18.18;100.00;96052.88;5112971;27;20627;-70
2023/08/30 10:06:35;;;;;;;1.50;1.40;;;;;;;18.49;100.00;96024.41;5119272;27;20042;-72
2023/08/30 10:09:03;;;;;;;1.33;1.23;;;;;;;18.44;100.00;96006.31;5116252;27;20026;-72
2023/08/30 10:11:29;;;;;;;1.30;1.20;;;;;;;18.51;100.00;95997.56;5128202;27;20111;-71
2023/08/30 10:13:55;;;;;;;1.20;1.20;;;;;;;18.74;100.00;95992.13;5115771;27;20059;-73
2023/08/30 10:16:26;;;;;;;1.88;1.52;;;;;;;18.75;100.00;95964.44;5125099;27;20499;-72
2023/08/30 10:19:05;;;;;;;2.00;1.33;;;;;;;18.81;100.00;95963.69;5110191;27;20031;-71
2023/08/30 10:21:31;;;;;;;1.45;1.35;;;;;;;18.95;100.00;95938.00;5121598;27;20189;-72
2023/08/30 10:23:58;;;;;;;1.85;1.60;;;;;;;19.22;100.00;95930.28;5108913;27;20074;-72
2023/08/30 10:26:26;;;;;;;1.42;1.20;;;;;;;19.31;100.00;95928.31;5106851;27;20030;-72
2023/08/30 10:28:56;;;;;;;1.52;1.42;;;;;;;19.32;100.00;95929.97;5114392;27;20424;-72
2023/08/30 10:31:22;;;;;;;1.38;1.38;;;;;;;19.43;100.00;95916.13;5112330;27;20050;-71
2023/08/30 10:33:53;;;;;;;1.67;1.58;;;;;;;19.38;100.00;95920.38;5109214;27;20031;-71
2023/08/30 10:36:26;;;;;;;1.33;1.33;;;;;;;19.43;100.00;95924.13;5106299;27;20083;-71
2023/08/30 10:38:53;;;;;;;1.27;1.27;;;;;;;19.57;100.00;95918.91;5115777;27;20020;-72
2023/08/30 10:41:24;;;;;;;3.17;1.63;;;;;;;19.72;100.00;95905.47;5117078;27;20022;-72
2023/08/30 10:43:55;;;;;;;1.48;1.38;;;;;;;20.11;100.00;95855.97;5122377;27;20110;-71
2023/08/30 10:46:32;;;;;;;2.05;1.50;;;;;;;20.23;100.00;95836.72;5115774;27;20027;-72
2023/08/30 10:49:09;;;;;;;1.17;1.17;;;;;;;20.10;100.00;95822.25;5106171;27;20169;-72
2023/08/30 10:51:39;;;;;;;1.23;1.23;;;;;;;20.22;100.00;95795.78;5095239;27;20039;-72
2023/08/30 10:54:15;;;;;;;1.27;1.17;;;;;;;20.37;100.00;95768.06;5103888;27;20031;-72
2023/08/30 10:56:54;;;;;;;1.80;1.20;;;;;;;20.39;100.00;95723.25;5112420;27;20136;-71
2023/08/30 10:59:20;;;;;;;1.23;1.17;;;;;;;20.67;100.00;95704.34;5114070;27;20031;-72
2023/08/30 11:01:47;;;;;;;1.50;1.40;;;;;;;20.74;100.00;95691.00;5109349;27;20033;-72
2023/08/30 11:04:14;;;;;;;1.63;1.25;;;;;;;20.84;100.00;95680.72;5102139;27;20028;-73
2023/08/30 11:06:43;;;;;;;1.20;1.10;;;;;;;20.68;100.00;95679.25;5102760;27;20031;-72
2023/08/30 11:09:08;;;;;;;5.35;1.58;;;;;;;20.74;100.00;95672.25;5098896;27;20486;-71
2023/08/30 11:11:36;;;;;;;1.30;1.20;;;;;;;20.93;100.00;95659.91;5096189;28;20016;-71
2023/08/30 11:14:08;;;;;;;1.23;1.13;;;;;;;21.00;100.00;95654.56;5100613;27;20043;-70
2023/08/30 11:16:37;;;;;;;1.90;1.20;;;;;;;21.30;100.00;95624.63;5098947;28;20028;-70
2023/08/30 11:19:07;;;;;;;1.30;1.20;;;;;;;21.34;100.00;95628.53;5122717;27;20027;-71
2023/08/30 11:21:36;;;;;;;1.20;1.20;;;;;;;21.46;100.00;95632.19;5114171;27;20024;-71
2023/08/30 11:24:03;;;;;;;1.58;1.48;;;;;;;21.80;100.00;95624.03;5108744;27;20056;-69
2023/08/30 11:26:29;;;;;;;3.53;1.20;;;;;;;21.61;100.00;95591.72;5119957;27;20039;-70